sensor_id;sensor_type;location;lat;lon;timestamp;pressure;altitude;pressure_sealevel;temperature;humidity
24825;BME280;12910;57.690;11.974;2023-02-19T00:01:13;100054.50;;;1.64;100.00
24825;BME280;12910;57.690;11.974;2023-02-19T00:03:39;100038.34;;;1.61;100.00
24825;BME280;12910;57.690;11.974;2023-02-19T00:06:07;100058.56;;;1.61;100.00
24825;BME280;12910;57.690;11.974;2023-02-19T00:08:34;100051.25;;;1.67;100.00
24825;BME280;12910;57.690;11.974;2023-02-19T00:11:05;100066.28;;;1.64;100.00
24825;BME280;12910;57.690;11.974;2023-02-19T00:13:35;100063.50;;;1.58;100.00
24825;BME280;12910;57.690;11.974;2023-02-19T00:16:15;100024.94;;;1.42;100.00
24825;BME280;12910;57.690;11.974;2023-02-19T00:18:41;100069.59;;;1.63;100.00
24825;BME280;12910;57.690;11.974;2023-02-19T00:21:06;100059.50;;;1.63;100.00
24825;BME280;12910;57.690;11.974;2023-02-19T00:23:32;100063.75;;;1.64;100.00
24825;BME280;12910;57.690;11.974;2023-02-19T00:26:06;100073.78;;;1.62;100.00
24825;BME280;12910;57.690;11.974;2023-02-19T00:28:32;100057.69;;;1.60;100.00
24825;BME280;12910;57.690;11.974;2023-02-19T00:33:30;100063.59;;;1.61;100.00
24825;BME280;12910;57.690;11.974;2023-02-19T00:36:01;100049.78;;;1.52;100.00
24825;BME280;12910;57.690;11.974;2023-02-19T00:38:27;100055.97;;;1.59;100.00
24825;BME280;12910;57.690;11.974;2023-02-19T00:40:52;100055.31;;;1.63;100.00
24825;BME280;12910;57.690;11.974;2023-02-19T00:43:17;100051.50;;;1.53;100.00
24825;BME280;12910;57.690;11.974;2023-02-19T00:45:43;100057.34;;;1.52;100.00
24825;BME280;12910;57.690;11.974;2023-02-19T00:48:08;100058.28;;;1.54;100.00
24825;BME280;12910;57.690;11.974;2023-02-19T00:50:34;100054.69;;;1.49;100.00
24825;BME280;12910;57.690;11.974;2023-02-19T00:52:59;100056.81;;;1.40;100.00
24825;BME280;12910;57.690;11.974;2023-02-19T00:55:24;100054.56;;;1.46;100.00
24825;BME280;12910;57.690;11.974;2023-02-19T00:57:50;100049.25;;;1.40;100.00
24825;BME280;12910;57.690;11.974;2023-02-19T01:00:15;100068.72;;;1.43;100.00
24825;BME280;12910;57.690;11.974;2023-02-19T01:02:40;100069.63;;;1.45;100.00
24825;BME280;12910;57.690;11.974;2023-02-19T01:05:06;100064.38;;;1.40;100.00
24825;BME280;12910;57.690;11.974;2023-02-19T01:07:34;100055.97;;;1.39;100.00
24825;BME280;12910;57.690;11.974;2023-02-19T01:10:00;100070.13;;;1.36;100.00
24825;BME280;12910;57.690;11.974;2023-02-19T01:12:25;100069.19;;;1.34;100.00
24825;BME280;12910;57.690;11.974;2023-02-19T01:14:53;100068.44;;;1.36;100.00
24825;BME280;12910;57.690;11.974;2023-02-19T01:17:19;100053.03;;;1.30;100.00
24825;BME280;12910;57.690;11.974;2023-02-19T01:19:44;100069.19;;;1.34;100.00
24825;BME280;12910;57.690;11.974;2023-02-19T01:22:10;100052.97;;;1.29;100.00
24825;BME280;12910;57.690;11.974;2023-02-19T01:24:35;100034.75;;;1.16;100.00
24825;BME280;12910;57.690;11.974;2023-02-19T01:27:00;100069.31;;;1.37;100.00
24825;BME280;12910;57.690;11.974;2023-02-19T01:29:26;100047.78;;;1.26;100.00
24825;BME280;12910;57.690;11.974;2023-02-19T01:31:51;100069.13;;;1.32;100.00
24825;BME280;12910;57.690;11.974;2023-02-19T01:34:16;100054.34;;;1.22;100.00
24825;BME280;12910;57.690;11.974;2023-02-19T01:36:42;100065.44;;;1.26;100.00
24825;BME280;12910;57.690;11.974;2023-02-19T01:39:09;100080.44;;;1.22;100.00
24825;BME280;12910;57.690;11.974;2023-02-19T01:41:38;100083.06;;;1.24;100.00
24825;BME280;12910;57.690;11.974;2023-02-19T01:46:40;100088.22;;;1.27;100.00
24825;BME280;12910;57.690;11.974;2023-02-19T01:49:27;100085.59;;;1.24;100.00
24825;BME280;12910;57.690;11.974;2023-02-19T01:52:00;100065.19;;;1.19;100.00
24825;BME280;12910;57.690;11.974;2023-02-19T01:54:30;100069.22;;;1.16;100.00
24825;BME280;12910;57.690;11.974;2023-02-19T01:56:57;100065.88;;;1.17;100.00
24825;BME280;12910;57.690;11.974;2023-02-19T01:59:24;100081.25;;;1.21;100.00
24825;BME280;12910;57.690;11.974;2023-02-19T02:01:50;100082.50;;;1.12;100.00
24825;BME280;12910;57.690;11.974;2023-02-19T02:04:16;100080.34;;;1.19;100.00
24825;BME280;12910;57.690;11.974;2023-02-19T02:06:47;100072.56;;;1.15;100.00
24825;BME280;12910;57.690;11.974;2023-02-19T02:09:15;100081.03;;;1.17;100.00
24825;BME280;12910;57.690;11.974;2023-02-19T02:11:59;100097.69;;;1.13;100.00
24825;BME280;12910;57.690;11.974;2023-02-19T02:14:28;100083.34;;;1.12;100.00
24825;BME280;12910;57.690;11.974;2023-02-19T02:17:25;100071.84;;;0.99;100.00
24825;BME280;12910;57.690;11.974;2023-02-19T02:22:50;100079.03;;;1.09;100.00
24825;BME280;12910;57.690;11.974;2023-02-19T02:31:28;100097.59;;;1.10;100.00
24825;BME280;12910;57.690;11.974;2023-02-19T02:34:15;100093.81;;;1.02;100.00
24825;BME280;12910;57.690;11.974;2023-02-19T02:36:45;100102.22;;;1.01;100.00
24825;BME280;12910;57.690;11.974;2023-02-19T02:39:13;100103.78;;;0.99;100.00
24825;BME280;12910;57.690;11.974;2023-02-19T02:41:42;100099.38;;;0.95;100.00
24825;BME280;12910;57.690;11.974;2023-02-19T02:44:08;100097.66;;;0.93;100.00
24825;BME280;12910;57.690;11.974;2023-02-19T02:46:34;100109.63;;;0.98;100.00
24825;BME280;12910;57.690;11.974;2023-02-19T02:49:04;100113.09;;;1.00;100.00
24825;BME280;12910;57.690;11.974;2023-02-19T02:51:40;100110.13;;;0.90;100.00
24825;BME280;12910;57.690;11.974;2023-02-19T02:54:11;100117.63;;;0.89;100.00
24825;BME280;12910;57.690;11.974;2023-02-19T02:56:58;100117.50;;;0.86;100.00
24825;BME280;12910;57.690;11.974;2023-02-19T02:59:30;100115.88;;;0.88;100.00
24825;BME280;12910;57.690;11.974;2023-02-19T03:02:01;100133.53;;;0.88;100.00
24825;BME280;12910;57.690;11.974;2023-02-19T03:04:59;100128.66;;;0.91;100.00
24825;BME280;12910;57.690;11.974;2023-02-19T03:07:53;100126.06;;;0.89;100.00
24825;BME280;12910;57.690;11.974;2023-02-19T03:10:54;100118.41;;;0.88;100.00
24825;BME280;12910;57.690;11.974;2023-02-19T03:13:22;100122.59;;;0.87;100.00
24825;BME280;12910;57.690;11.974;2023-02-19T03:16:15;100141.91;;;0.87;100.00
24825;BME280;12910;57.690;11.974;2023-02-19T03:19:00;100136.44;;;0.96;100.00
24825;BME280;12910;57.690;11.974;2023-02-19T03:21:53;100138.75;;;0.91;100.00
24825;BME280;12910;57.690;11.974;2023-02-19T03:24:22;100152.16;;;0.90;100.00
24825;BME280;12910;57.690;11.974;2023-02-19T03:27:09;100150.41;;;0.89;100.00
24825;BME280;12910;57.690;11.974;2023-02-19T03:29:38;100157.03;;;0.87;100.00
24825;BME280;12910;57.690;11.974;2023-02-19T03:32:11;100147.09;;;0.90;100.00
24825;BME280;12910;57.690;11.974;2023-02-19T03:34:53;100154.72;;;0.91;100.00
24825;BME280;12910;57.690;11.974;2023-02-19T03:37:29;100162.09;;;0.87;100.00
24825;BME280;12910;57.690;11.974;2023-02-19T03:39:57;100155.91;;;0.80;100.00
24825;BME280;12910;57.690;11.974;2023-02-19T03:45:29;100164.38;;;0.82;100.00
24825;BME280;12910;57.690;11.974;2023-02-19T03:48:06;100181.41;;;0.86;100.00
24825;BME280;12910;57.690;11.974;2023-02-19T03:50:48;100161.81;;;0.81;100.00
24825;BME280;12910;57.690;11.974;2023-02-19T03:53:23;100186.97;;;0.79;100.00
24825;BME280;12910;57.690;11.974;2023-02-19T03:58:42;100181.13;;;0.80;100.00
24825;BME280;12910;57.690;11.974;2023-02-19T04:01:14;100175.94;;;0.77;100.00
24825;BME280;12910;57.690;11.974;2023-02-19T04:06:53;100179.41;;;0.79;100.00
24825;BME280;12910;57.690;11.974;2023-02-19T04:09:20;100186.31;;;0.83;100.00
24825;BME280;12910;57.690;11.974;2023-02-19T04:11:49;100192.06;;;0.81;100.00
24825;BME280;12910;57.690;11.974;2023-02-19T04:14:19;100200.66;;;0.84;100.00
24825;BME280;12910;57.690;11.974;2023-02-19T04:16:51;100199.84;;;0.85;100.00
24825;BME280;12910;57.690;11.974;2023-02-19T04:19:20;100199.41;;;0.76;100.00
24825;BME280;12910;57.690;11.974;2023-02-19T04:21:48;100210.38;;;0.76;100.00
24825;BME280;12910;57.690;11.974;2023-02-19T04:24:33;100195.66;;;0.68;100.00
24825;BME280;12910;57.690;11.974;2023-02-19T04:27:02;100200.19;;;0.75;100.00
24825;BME280;12910;57.690;11.974;2023-02-19T04:29:29;100185.84;;;0.74;100.00
24825;BME280;12910;57.690;11.974;2023-02-19T04:31:54;100211.25;;;0.77;100.00
24825;BME280;12910;57.690;11.974;2023-02-19T04:34:19;100207.63;;;0.72;100.00
24825;BME280;12910;57.690;11.974;2023-02-19T04:36:45;100205.19;;;0.73;100.00
24825;BME280;12910;57.690;11.974;2023-02-19T04:39:10;100216.06;;;0.72;100.00
24825;BME280;12910;57.690;11.974;2023-02-19T04:41:35;100223.06;;;0.78;100.00
24825;BME280;12910;57.690;11.974;2023-02-19T04:44:01;100215.03;;;0.69;100.00
24825;BME280;12910;57.690;11.974;2023-02-19T04:46:26;100213.09;;;0.63;100.00
24825;BME280;12910;57.690;11.974;2023-02-19T04:48:51;100230.34;;;0.72;100.00
24825;BME280;12910;57.690;11.974;2023-02-19T04:51:17;100221.59;;;0.65;100.00
24825;BME280;12910;57.690;11.974;2023-02-19T04:53:42;100210.03;;;0.52;100.00
24825;BME280;12910;57.690;11.974;2023-02-19T04:56:14;100231.53;;;0.62;100.00
24825;BME280;12910;57.690;11.974;2023-02-19T04:58:40;100232.25;;;0.59;100.00
24825;BME280;12910;57.690;11.974;2023-02-19T05:01:06;100234.53;;;0.55;100.00
24825;BME280;12910;57.690;11.974;2023-02-19T05:03:32;100253.28;;;0.60;100.00
24825;BME280;12910;57.690;11.974;2023-02-19T05:06:03;100253.38;;;0.61;100.00
24825;BME280;12910;57.690;11.974;2023-02-19T05:08:29;100248.78;;;0.54;100.00
24825;BME280;12910;57.690;11.974;2023-02-19T05:11:01;100266.75;;;0.60;100.00
24825;BME280;12910;57.690;11.974;2023-02-19T05:13:28;100259.31;;;0.64;100.00
24825;BME280;12910;57.690;11.974;2023-02-19T05:15:55;100260.78;;;0.58;100.00
24825;BME280;12910;57.690;11.974;2023-02-19T05:18:20;100267.72;;;0.63;100.00
24825;BME280;12910;57.690;11.974;2023-02-19T05:20:46;100273.31;;;0.57;100.00
24825;BME280;12910;57.690;11.974;2023-02-19T05:23:11;100250.22;;;0.49;100.00
24825;BME280;12910;57.690;11.974;2023-02-19T05:25:36;100263.22;;;0.57;100.00
24825;BME280;12910;57.690;11.974;2023-02-19T05:28:02;100277.47;;;0.56;100.00
24825;BME280;12910;57.690;11.974;2023-02-19T05:30:51;100270.13;;;0.61;100.00
24825;BME280;12910;57.690;11.974;2023-02-19T05:33:19;100263.06;;;0.54;100.00
24825;BME280;12910;57.690;11.974;2023-02-19T05:35:46;100270.84;;;0.58;100.00
24825;BME280;12910;57.690;11.974;2023-02-19T05:38:12;100279.19;;;0.57;100.00
24825;BME280;12910;57.690;11.974;2023-02-19T05:40:38;100265.19;;;0.46;100.00
24825;BME280;12910;57.690;11.974;2023-02-19T05:43:04;100262.66;;;0.46;100.00
24825;BME280;12910;57.690;11.974;2023-02-19T05:45:30;100291.75;;;0.56;100.00
24825;BME280;12910;57.690;11.974;2023-02-19T05:47:56;100283.16;;;0.52;100.00
24825;BME280;12910;57.690;11.974;2023-02-19T05:50:21;100298.44;;;0.55;100.00
24825;BME280;12910;57.690;11.974;2023-02-19T05:52:47;100289.66;;;0.49;100.00
24825;BME280;12910;57.690;11.974;2023-02-19T05:55:12;100311.03;;;0.55;100.00
24825;BME280;12910;57.690;11.974;2023-02-19T05:57:46;100307.72;;;0.56;100.00
24825;BME280;12910;57.690;11.974;2023-02-19T06:00:14;100310.09;;;0.53;100.00
24825;BME280;12910;57.690;11.974;2023-02-19T06:02:40;100302.50;;;0.53;100.00
24825;BME280;12910;57.690;11.974;2023-02-19T06:05:06;100310.09;;;0.53;100.00
24825;BME280;12910;57.690;11.974;2023-02-19T06:07:32;100320.03;;;0.50;100.00
24825;BME280;12910;57.690;11.974;2023-02-19T06:09:58;100303.63;;;0.42;100.00
24825;BME280;12910;57.690;11.974;2023-02-19T06:12:23;100321.53;;;0.46;100.00
24825;BME280;12910;57.690;11.974;2023-02-19T06:14:49;100329.16;;;0.48;100.00
24825;BME280;12910;57.690;11.974;2023-02-19T06:17:14;100323.34;;;0.49;100.00
24825;BME280;12910;57.690;11.974;2023-02-19T06:19:40;100310.41;;;0.43;100.00
24825;BME280;12910;57.690;11.974;2023-02-19T06:22:05;100319.25;;;0.51;100.00
24825;BME280;12910;57.690;11.974;2023-02-19T06:24:31;100326.03;;;0.52;100.00
24825;BME280;12910;57.690;11.974;2023-02-19T06:26:57;100310.50;;;0.44;100.00
24825;BME280;12910;57.690;11.974;2023-02-19T06:29:22;100328.44;;;0.51;100.00
24825;BME280;12910;57.690;11.974;2023-02-19T06:31:48;100317.97;;;0.43;100.00
24825;BME280;12910;57.690;11.974;2023-02-19T06:34:13;100339.25;;;0.48;100.00
24825;BME280;12910;57.690;11.974;2023-02-19T06:36:38;100303.59;;;0.25;100.00
24825;BME280;12910;57.690;11.974;2023-02-19T06:39:04;100346.88;;;0.50;100.00
24825;BME280;12910;57.690;11.974;2023-02-19T06:41:30;100333.72;;;0.39;100.00
24825;BME280;12910;57.690;11.974;2023-02-19T06:43:57;100347.41;;;0.44;100.00
24825;BME280;12910;57.690;11.974;2023-02-19T06:46:22;100355.47;;;0.37;100.00
24825;BME280;12910;57.690;11.974;2023-02-19T06:48:48;100334.19;;;0.32;100.00
24825;BME280;12910;57.690;11.974;2023-02-19T06:51:15;100341.28;;;0.39;100.00
24825;BME280;12910;57.690;11.974;2023-02-19T06:53:48;100339.78;;;0.42;100.00
24825;BME280;12910;57.690;11.974;2023-02-19T06:56:23;100351.06;;;0.49;100.00
24825;BME280;12910;57.690;11.974;2023-02-19T06:58:50;100347.41;;;0.44;100.00
24825;BME280;12910;57.690;11.974;2023-02-19T07:01:15;100354.69;;;0.54;100.00
24825;BME280;12910;57.690;11.974;2023-02-19T07:03:41;100356.19;;;0.51;100.00
24825;BME280;12910;57.690;11.974;2023-02-19T07:06:06;100341.59;;;0.45;100.00
24825;BME280;12910;57.690;11.974;2023-02-19T07:08:32;100353.66;;;0.51;100.00
24825;BME280;12910;57.690;11.974;2023-02-19T07:10:57;100353.84;;;0.54;100.00
24825;BME280;12910;57.690;11.974;2023-02-19T07:13:24;100359.03;;;0.57;100.00
24825;BME280;12910;57.690;11.974;2023-02-19T07:15:51;100334.19;;;0.48;100.00
24825;BME280;12910;57.690;11.974;2023-02-19T07:18:16;100371.91;;;0.61;100.00
24825;BME280;12910;57.690;11.974;2023-02-19T07:20:42;100375.19;;;0.60;100.00
24825;BME280;12910;57.690;11.974;2023-02-19T07:23:08;100378.81;;;0.66;100.00
24825;BME280;12910;57.690;11.974;2023-02-19T07:25:33;100363.53;;;0.63;100.00
24825;BME280;12910;57.690;11.974;2023-02-19T07:27:58;100375.56;;;0.68;100.00
24825;BME280;12910;57.690;11.974;2023-02-19T07:30:24;100372.81;;;0.64;100.00
24825;BME280;12910;57.690;11.974;2023-02-19T07:32:49;100371.00;;;0.61;100.00
24825;BME280;12910;57.690;11.974;2023-02-19T07:35:14;100376.41;;;0.67;100.00
24825;BME280;12910;57.690;11.974;2023-02-19T07:37:40;100379.28;;;0.75;100.00
24825;BME280;12910;57.690;11.974;2023-02-19T07:40:06;100380.19;;;0.75;100.00
24825;BME280;12910;57.690;11.974;2023-02-19T07:42:31;100388.53;;;0.74;100.00
24825;BME280;12910;57.690;11.974;2023-02-19T07:44:57;100381.03;;;0.76;100.00
24825;BME280;12910;57.690;11.974;2023-02-19T07:47:22;100378.91;;;0.84;100.00
24825;BME280;12910;57.690;11.974;2023-02-19T07:49:48;100382.38;;;0.86;100.00
24825;BME280;12910;57.690;11.974;2023-02-19T07:52:13;100381.81;;;0.91;100.00
24825;BME280;12910;57.690;11.974;2023-02-19T07:54:38;100376.94;;;0.95;100.00
24825;BME280;12910;57.690;11.974;2023-02-19T07:57:04;100394.59;;;0.95;100.00
24825;BME280;12910;57.690;11.974;2023-02-19T07:59:29;100389.53;;;0.95;100.00
24825;BME280;12910;57.690;11.974;2023-02-19T08:01:55;100406.59;;;0.99;100.00
24825;BME280;12910;57.690;11.974;2023-02-19T08:04:39;100412.00;;;1.06;100.00
24825;BME280;12910;57.690;11.974;2023-02-19T08:07:04;100417.47;;;1.14;100.00
24825;BME280;12910;57.690;11.974;2023-02-19T08:09:30;100388.03;;;0.98;100.00
24825;BME280;12910;57.690;11.974;2023-02-19T08:11:56;100419.50;;;1.21;100.00
24825;BME280;12910;57.690;11.974;2023-02-19T08:14:40;100418.09;;;1.27;100.00
24825;BME280;12910;57.690;11.974;2023-02-19T08:17:05;100417.31;;;1.28;100.00
24825;BME280;12910;57.690;11.974;2023-02-19T08:19:30;100413.22;;;1.30;100.00
24825;BME280;12910;57.690;11.974;2023-02-19T08:21:56;100416.03;;;1.36;100.00
24825;BME280;12910;57.690;11.974;2023-02-19T08:24:21;100431.13;;;1.34;100.00
24825;BME280;12910;57.690;11.974;2023-02-19T08:26:46;100411.59;;;1.32;100.00
24825;BME280;12910;57.690;11.974;2023-02-19T08:29:12;100423.53;;;1.34;100.00
24825;BME280;12910;57.690;11.974;2023-02-19T08:31:37;100423.75;;;1.39;100.00
24825;BME280;12910;57.690;11.974;2023-02-19T08:34:02;100401.22;;;1.26;100.00
24825;BME280;12910;57.690;11.974;2023-02-19T08:36:28;100417.78;;;1.37;100.00
24825;BME280;12910;57.690;11.974;2023-02-19T08:38:53;100428.16;;;1.43;100.00
24825;BME280;12910;57.690;11.974;2023-02-19T08:41:19;100429.28;;;1.48;100.00
24825;BME280;12910;57.690;11.974;2023-02-19T08:43:45;100429.91;;;1.44;100.00
24825;BME280;12910;57.690;11.974;2023-02-19T08:46:11;100445.50;;;1.53;100.00
24825;BME280;12910;57.690;11.974;2023-02-19T08:48:37;100424.91;;;1.46;100.00
24825;BME280;12910;57.690;11.974;2023-02-19T08:51:05;100458.44;;;1.60;100.00
24825;BME280;12910;57.690;11.974;2023-02-19T08:53:34;100446.69;;;1.60;100.00
24825;BME280;12910;57.690;11.974;2023-02-19T08:56:14;100461.13;;;1.63;100.00
24825;BME280;12910;57.690;11.974;2023-02-19T08:58:41;100450.84;;;1.60;100.00
24825;BME280;12910;57.690;11.974;2023-02-19T09:01:08;100447.53;;;1.61;100.00
24825;BME280;12910;57.690;11.974;2023-02-19T09:03:34;100435.06;;;1.64;100.00
24825;BME280;12910;57.690;11.974;2023-02-19T09:05:59;100441.94;;;1.66;100.00
24825;BME280;12910;57.690;11.974;2023-02-19T09:08:24;100449.59;;;1.68;100.00
24825;BME280;12910;57.690;11.974;2023-02-19T09:10:58;100452.59;;;1.77;100.00
24825;BME280;12910;57.690;11.974;2023-02-19T09:13:24;100454.66;;;1.86;100.00
24825;BME280;12910;57.690;11.974;2023-02-19T09:15:49;100462.63;;;1.94;100.00
24825;BME280;12910;57.690;11.974;2023-02-19T09:18:14;100461.84;;;1.95;100.00
24825;BME280;12910;57.690;11.974;2023-02-19T09:20:40;100454.53;;;2.01;100.00
24825;BME280;12910;57.690;11.974;2023-02-19T09:23:05;100459.81;;;2.06;100.00
24825;BME280;12910;57.690;11.974;2023-02-19T09:25:30;100462.00;;;2.16;100.00
24825;BME280;12910;57.690;11.974;2023-02-19T09:27:56;100459.63;;;2.19;100.00
24825;BME280;12910;57.690;11.974;2023-02-19T09:30:21;100465.97;;;2.29;100.00
24825;BME280;12910;57.690;11.974;2023-02-19T09:32:47;100472.03;;;2.32;100.00
24825;BME280;12910;57.690;11.974;2023-02-19T09:35:12;100485.69;;;2.36;100.00
24825;BME280;12910;57.690;11.974;2023-02-19T09:37:37;100471.41;;;2.37;100.00
24825;BME280;12910;57.690;11.974;2023-02-19T09:40:03;100478.94;;;2.35;100.00
24825;BME280;12910;57.690;11.974;2023-02-19T09:42:29;100478.50;;;2.26;100.00
24825;BME280;12910;57.690;11.974;2023-02-19T09:44:58;100484.78;;;2.34;100.00
24825;BME280;12910;57.690;11.974;2023-02-19T09:47:27;100473.78;;;2.33;100.00
24825;BME280;12910;57.690;11.974;2023-02-19T09:49:57;100487.31;;;2.34;100.00
24825;BME280;12910;57.690;11.974;2023-02-19T09:55:02;100475.56;;;2.36;100.00
24825;BME280;12910;57.690;11.974;2023-02-19T09:57:29;100496.25;;;2.45;100.00
24825;BME280;12910;57.690;11.974;2023-02-19T10:00:11;100488.66;;;2.45;100.00
24825;BME280;12910;57.690;11.974;2023-02-19T10:02:38;100492.66;;;2.40;100.00
24825;BME280;12910;57.690;11.974;2023-02-19T10:05:13;100509.63;;;2.43;100.00
24825;BME280;12910;57.690;11.974;2023-02-19T10:07:47;100499.88;;;2.51;100.00
24825;BME280;12910;57.690;11.974;2023-02-19T10:12:42;100524.88;;;2.62;100.00
24825;BME280;12910;57.690;11.974;2023-02-19T10:15:19;100496.03;;;2.59;100.00
24825;BME280;12910;57.690;11.974;2023-02-19T10:17:46;100498.72;;;2.62;100.00
24825;BME280;12910;57.690;11.974;2023-02-19T10:20:14;100497.03;;;2.62;100.00
24825;BME280;12910;57.690;11.974;2023-02-19T10:22:42;100518.06;;;2.79;100.00
24825;BME280;12910;57.690;11.974;2023-02-19T10:25:11;100527.41;;;2.80;100.00
24825;BME280;12910;57.690;11.974;2023-02-19T10:27:38;100507.41;;;2.87;100.00
24825;BME280;12910;57.690;11.974;2023-02-19T10:30:05;100513.03;;;2.99;100.00
24825;BME280;12910;57.690;11.974;2023-02-19T10:32:31;100483.69;;;2.85;100.00
24825;BME280;12910;57.690;11.974;2023-02-19T10:35:13;100518.66;;;3.11;100.00
24825;BME280;12910;57.690;11.974;2023-02-19T10:37:47;100492.41;;;3.09;100.00
24825;BME280;12910;57.690;11.974;2023-02-19T10:40:33;100509.22;;;3.27;100.00
24825;BME280;12910;57.690;11.974;2023-02-19T10:43:02;100507.88;;;3.35;100.00
24825;BME280;12910;57.690;11.974;2023-02-19T10:45:38;100523.34;;;3.41;100.00
24825;BME280;12910;57.690;11.974;2023-02-19T10:48:05;100518.56;;;3.48;100.00
24825;BME280;12910;57.690;11.974;2023-02-19T10:50:34;100545.75;;;3.52;100.00
24825;BME280;12910;57.690;11.974;2023-02-19T10:53:04;100497.28;;;3.44;100.00
24825;BME280;12910;57.690;11.974;2023-02-19T10:55:34;100477.06;;;3.26;100.00
24825;BME280;12910;57.690;11.974;2023-02-19T10:58:25;100519.50;;;3.50;100.00
24825;BME280;12910;57.690;11.974;2023-02-19T11:03:41;100529.75;;;3.53;100.00
24825;BME280;12910;57.690;11.974;2023-02-19T11:06:09;100516.47;;;3.58;100.00
24825;BME280;12910;57.690;11.974;2023-02-19T11:11:09;100531.88;;;3.63;100.00
24825;BME280;12910;57.690;11.974;2023-02-19T11:13:45;100535.00;;;3.57;100.00
24825;BME280;12910;57.690;11.974;2023-02-19T11:16:11;100514.94;;;3.62;100.00
24825;BME280;12910;57.690;11.974;2023-02-19T11:18:36;100504.19;;;3.68;100.00
24825;BME280;12910;57.690;11.974;2023-02-19T11:21:05;100507.47;;;3.65;100.00
24825;BME280;12910;57.690;11.974;2023-02-19T11:23:34;100492.13;;;3.62;100.00
24825;BME280;12910;57.690;11.974;2023-02-19T11:26:04;100500.78;;;3.67;100.00
24825;BME280;12910;57.690;11.974;2023-02-19T11:28:40;100517.13;;;3.74;100.00
24825;BME280;12910;57.690;11.974;2023-02-19T11:36:39;100512.38;;;3.82;100.00
24825;BME280;12910;57.690;11.974;2023-02-19T11:45:47;100520.09;;;3.64;100.00
24825;BME280;12910;57.690;11.974;2023-02-19T11:48:12;100539.47;;;3.63;100.00
24825;BME280;12910;57.690;11.974;2023-02-19T11:56:22;100512.53;;;3.46;100.00
24825;BME280;12910;57.690;11.974;2023-02-19T11:59:24;100513.88;;;3.37;100.00
24825;BME280;12910;57.690;11.974;2023-02-19T12:02:06;100512.53;;;3.26;100.00
24825;BME280;12910;57.690;11.974;2023-02-19T12:05:02;100519.94;;;3.21;100.00
24825;BME280;12910;57.690;11.974;2023-02-19T12:08:13;100494.25;;;3.14;100.00
24825;BME280;12910;57.690;11.974;2023-02-19T12:11:15;100484.97;;;3.13;100.00
24825;BME280;12910;57.690;11.974;2023-02-19T12:16:38;100477.34;;;3.13;100.00
24825;BME280;12910;57.690;11.974;2023-02-19T12:19:17;100478.94;;;3.10;100.00
24825;BME280;12910;57.690;11.974;2023-02-19T12:22:28;100478.41;;;3.18;100.00
24825;BME280;12910;57.690;11.974;2023-02-19T12:27:25;100476.69;;;3.17;100.00
24825;BME280;12910;57.690;11.974;2023-02-19T12:30:14;100478.56;;;3.21;100.00
24825;BME280;12910;57.690;11.974;2023-02-19T12:35:41;100479.28;;;3.18;100.00
24825;BME280;12910;57.690;11.974;2023-02-19T12:38:24;100474.38;;;3.03;100.00
24825;BME280;12910;57.690;11.974;2023-02-19T12:43:30;100439.75;;;2.83;100.00
24825;BME280;12910;57.690;11.974;2023-02-19T12:46:01;100478.47;;;3.00;100.00
24825;BME280;12910;57.690;11.974;2023-02-19T12:48:53;100477.66;;;3.01;100.00
24825;BME280;12910;57.690;11.974;2023-02-19T12:51:28;100462.41;;;2.99;100.00
24825;BME280;12910;57.690;11.974;2023-02-19T12:54:12;100454.06;;;3.02;100.00
24825;BME280;12910;57.690;11.974;2023-02-19T12:56:43;100451.34;;;2.97;100.00
24825;BME280;12910;57.690;11.974;2023-02-19T12:59:20;100463.41;;;3.03;100.00
24825;BME280;12910;57.690;11.974;2023-02-19T13:04:44;100470.66;;;2.95;100.00
24825;BME280;12910;57.690;11.974;2023-02-19T13:09:53;100438.75;;;2.99;100.00
24825;BME280;12910;57.690;11.974;2023-02-19T13:12:23;100433.09;;;3.04;100.00
24825;BME280;12910;57.690;11.974;2023-02-19T13:14:56;100425.63;;;3.07;100.00
24825;BME280;12910;57.690;11.974;2023-02-19T13:17:28;100422.16;;;3.05;100.00
24825;BME280;12910;57.690;11.974;2023-02-19T13:20:07;100429.97;;;3.10;100.00
24825;BME280;12910;57.690;11.974;2023-02-19T13:23:20;100440.97;;;3.10;100.00
24825;BME280;12910;57.690;11.974;2023-02-19T13:36:53;100432.38;;;3.07;100.00
24825;BME280;12910;57.690;11.974;2023-02-19T13:39:19;100449.34;;;3.29;100.00
24825;BME280;12910;57.690;11.974;2023-02-19T13:41:51;100453.75;;;3.33;100.00
24825;BME280;12910;57.690;11.974;2023-02-19T13:44:21;100438.28;;;3.27;100.00
24825;BME280;12910;57.690;11.974;2023-02-19T13:46:49;100438.84;;;3.20;100.00
24825;BME280;12910;57.690;11.974;2023-02-19T13:49:38;100460.94;;;3.43;100.00
24825;BME280;12910;57.690;11.974;2023-02-19T13:52:37;100473.13;;;3.52;100.00
24825;BME280;12910;57.690;11.974;2023-02-19T14:00:57;100501.44;;;3.83;100.00
24825;BME280;12910;57.690;11.974;2023-02-19T14:03:52;100501.81;;;3.92;100.00
24825;BME280;12910;57.690;11.974;2023-02-19T14:06:18;100504.06;;;4.05;100.00
24825;BME280;12910;57.690;11.974;2023-02-19T14:08:56;100507.00;;;4.16;100.00
24825;BME280;12910;57.690;11.974;2023-02-19T14:14:25;100521.81;;;4.27;100.00
24825;BME280;12910;57.690;11.974;2023-02-19T14:16:57;100509.25;;;4.30;100.00
24825;BME280;12910;57.690;11.974;2023-02-19T14:30:45;100494.56;;;4.44;100.00
24825;BME280;12910;57.690;11.974;2023-02-19T14:33:14;100492.16;;;4.47;100.00
24825;BME280;12910;57.690;11.974;2023-02-19T14:35:43;100507.47;;;4.50;100.00